Terminal Aerodrome Forecast
Issued by NWS Louisville, KY

Home | Current Version | Previous Version | Text Only | Print | Product List | Glossary On
Versions: 1 2 3 4 5 6 7 8 9 10 11 12 13 14 15 16 17 18 19 20
000
FTUS43 KLMK 271600 AAC
TAFSDF
TAF AMD
KSDF 271609Z 2716/2818 20010KT P6SM SCT028 BKN250
      TEMPO 2716/2717 BKN025
     FM271700 22011G18KT P6SM VCTS SCT030CB BKN040
      TEMPO 2717/2719 VRB20G30KT 2SM TSRA BKN025CB
     FM280100 22005KT P6SM VCSH BKN100
     FM280900 00000KT 6SM BR FEW250=

USA.gov is the U.S. government's official web portal to all federal, state and local government web resources and services.